Time;durP1;ratioP1;P1;durP2;ratioP2;P2;SDS_P1;SDS_P2;PMS_P1;PMS_P2;Temp;Humidity;BMP_temperature;BMP_pressure;BME280_temperature;BME280_humidity;BME280_pressure;Samples;Min_cycle;Max_cycle;Signal;HPM_P1;HPM_P2
2021/12/03 00:01:07;;;;;;;12.35;6.47;;;;;;;1.02;100.00;101057.50;5015584;28;20049;-58
2021/12/03 00:03:33;;;;;;;13.60;8.07;;;;;;;0.99;100.00;101047.13;5031827;28;20384;-57
2021/12/03 00:05:58;;;;;;;10.90;7.45;;;;;;;0.99;100.00;101052.28;5036416;28;20026;-56
2021/12/03 00:08:25;;;;;;;13.80;7.47;;;;;;;0.98;100.00;101055.66;5023950;28;20025;-57
2021/12/03 00:10:56;;;;;;;12.00;7.70;;;;;;;0.92;100.00;101046.91;5037171;28;20074;-59
2021/12/03 00:13:22;;;;;;;19.55;8.02;;;;;;;0.90;100.00;101043.44;5035057;28;20018;-59
2021/12/03 00:15:49;;;;;;;11.95;7.45;;;;;;;0.87;100.00;101040.75;5025729;28;20029;-58
2021/12/03 00:18:15;;;;;;;14.88;8.63;;;;;;;0.88;100.00;101037.34;5030958;28;20091;-57
2021/12/03 00:20:40;;;;;;;13.55;7.63;;;;;;;0.88;100.00;101039.91;5028187;28;20528;-56
2021/12/03 00:23:07;;;;;;;12.23;8.50;;;;;;;0.89;100.00;101031.38;5022819;28;20492;-55
2021/12/03 00:25:34;;;;;;;11.68;8.40;;;;;;;0.87;100.00;101048.47;5037212;28;20013;-53
2021/12/03 00:28:00;;;;;;;15.30;9.27;;;;;;;0.81;100.00;101043.09;5037005;28;20033;-54
2021/12/03 00:30:26;;;;;;;15.57;9.82;;;;;;;0.84;100.00;101058.63;5022964;28;20071;-57
2021/12/03 00:32:52;;;;;;;14.30;9.52;;;;;;;0.87;100.00;101057.88;5036555;28;20049;-55
2021/12/03 00:35:18;;;;;;;12.73;9.48;;;;;;;0.90;100.00;101053.72;5022462;28;20437;-57
2021/12/03 00:37:46;;;;;;;12.45;9.38;;;;;;;0.92;100.00;101038.31;5036696;28;20025;-55
2021/12/03 00:40:14;;;;;;;17.33;8.88;;;;;;;0.92;100.00;101040.88;5036384;28;20381;-56
2021/12/03 00:42:41;;;;;;;15.15;9.25;;;;;;;0.89;100.00;101051.06;5027870;28;20040;-59
2021/12/03 00:45:10;;;;;;;19.05;9.55;;;;;;;0.88;100.00;101047.63;5032247;28;20057;-54
2021/12/03 00:47:35;;;;;;;15.05;9.27;;;;;;;0.87;100.00;101056.19;5016739;28;20533;-55
2021/12/03 00:50:01;;;;;;;17.52;9.05;;;;;;;0.86;100.00;101057.00;5029897;28;20060;-56
2021/12/03 00:52:26;;;;;;;14.07;8.95;;;;;;;0.83;100.00;101054.34;5036058;28;20446;-57
2021/12/03 00:54:52;;;;;;;12.45;8.65;;;;;;;0.83;100.00;101056.91;5036062;28;20025;-57
2021/12/03 00:57:17;;;;;;;12.32;7.95;;;;;;;0.86;100.00;101056.13;5036443;28;20021;-56
2021/12/03 00:59:43;;;;;;;10.85;7.85;;;;;;;0.88;100.00;101054.47;5017099;28;20061;-55
2021/12/03 01:02:08;;;;;;;15.60;9.13;;;;;;;0.87;100.00;101053.63;5027276;28;20024;-56
2021/12/03 01:04:33;;;;;;;13.02;8.43;;;;;;;0.86;100.00;101057.00;5032551;28;20096;-57
2021/12/03 01:06:59;;;;;;;14.35;7.90;;;;;;;0.90;100.00;101061.44;5025329;28;20384;-57
2021/12/03 01:09:25;;;;;;;18.38;8.95;;;;;;;0.91;100.00;101065.75;5034920;28;20024;-57
2021/12/03 01:11:51;;;;;;;12.50;7.57;;;;;;;0.90;100.00;101068.28;5023395;28;20033;-54
2021/12/03 01:14:18;;;;;;;17.10;9.25;;;;;;;0.86;100.00;101064.72;5035245;28;20029;-57
2021/12/03 01:16:45;;;;;;;12.93;9.13;;;;;;;0.79;100.00;101062.78;5035831;28;20113;-55
2021/12/03 01:19:11;;;;;;;17.27;9.85;;;;;;;0.68;100.00;101074.34;5035955;28;20155;-58
2021/12/03 01:21:37;;;;;;;15.80;9.48;;;;;;;0.61;100.00;101069.81;5021684;28;20104;-59
2021/12/03 01:24:03;;;;;;;13.18;9.52;;;;;;;0.56;100.00;101061.06;5035485;28;20446;-58
2021/12/03 01:26:31;;;;;;;10.70;7.80;;;;;;;0.55;100.00;101059.34;5021621;28;20036;-58
2021/12/03 01:28:56;;;;;;;14.48;7.57;;;;;;;0.61;100.00;101049.25;5035917;28;20025;-57
2021/12/03 01:31:22;;;;;;;11.93;8.23;;;;;;;0.62;100.00;101045.88;5036064;28;20033;-56
2021/12/03 01:33:48;;;;;;;9.40;7.25;;;;;;;0.61;100.00;101044.13;5034291;28;20065;-57
2021/12/03 01:36:14;;;;;;;11.52;7.15;;;;;;;0.65;100.00;101048.53;5035441;28;20037;-58
2021/12/03 01:38:39;;;;;;;17.08;7.85;;;;;;;0.59;100.00;101043.19;5035474;28;20052;-58
2021/12/03 01:41:05;;;;;;;9.63;6.55;;;;;;;0.58;100.00;101048.28;5032043;28;20460;-58
2021/12/03 01:43:31;;;;;;;14.40;8.10;;;;;;;0.56;100.00;101047.38;5019703;28;20096;-58
2021/12/03 01:45:59;;;;;;;11.48;7.57;;;;;;;0.54;100.00;101052.44;5015751;28;20030;-58
2021/12/03 01:48:26;;;;;;;12.25;7.70;;;;;;;0.61;100.00;101056.09;5015403;28;20021;-54
2021/12/03 01:50:52;;;;;;;10.77;6.97;;;;;;;0.63;100.00;101055.34;5021157;28;20025;-54
2021/12/03 01:53:22;;;;;;;9.75;6.65;;;;;;;0.67;100.00;101059.78;5035424;28;20384;-57
2021/12/03 01:55:49;;;;;;;12.82;7.13;;;;;;;0.69;100.00;101062.38;5035075;28;20460;-56
2021/12/03 01:58:15;;;;;;;12.25;6.43;;;;;;;0.70;100.00;101054.72;5028212;28;20484;-54
2021/12/03 02:00:51;;;;;;;10.98;6.55;;;;;;;0.80;100.00;101066.19;5027977;28;20021;-57
2021/12/03 02:03:19;;;;;;;18.70;6.32;;;;;;;0.79;100.00;101039.63;5021538;28;20103;-57
2021/12/03 02:05:45;;;;;;;8.88;6.32;;;;;;;0.93;100.00;101035.81;5035017;28;20037;-57
2021/12/03 02:08:12;;;;;;;9.40;6.85;;;;;;;1.03;100.00;101038.69;5020935;28;20017;-57
2021/12/03 02:10:40;;;;;;;9.48;6.35;;;;;;;1.00;100.00;101033.41;5034623;28;20026;-59
2021/12/03 02:13:06;;;;;;;13.15;6.95;;;;;;;0.97;100.00;101030.75;5031723;28;20353;-58
2021/12/03 02:15:31;;;;;;;10.43;5.85;;;;;;;0.84;100.00;101026.88;5015108;28;20017;-59
2021/12/03 02:17:56;;;;;;;8.48;6.28;;;;;;;0.85;100.00;101026.06;5020764;28;20180;-58
2021/12/03 02:20:22;;;;;;;9.35;6.53;;;;;;;0.82;100.00;101026.84;5018839;28;20060;-58
2021/12/03 02:22:48;;;;;;;11.95;7.60;;;;;;;0.79;100.00;101024.19;5030948;28;20108;-56
2021/12/03 02:25:20;;;;;;;15.60;7.88;;;;;;;0.80;100.00;101035.31;5033231;28;20025;-56
2021/12/03 02:27:50;;;;;;;19.75;7.50;;;;;;;0.87;100.00;101038.19;5034451;28;20033;-58
2021/12/03 02:30:17;;;;;;;9.38;6.70;;;;;;;0.85;100.00;101028.66;5015806;28;20477;-57
2021/12/03 02:32:44;;;;;;;17.90;7.65;;;;;;;0.89;100.00;101028.81;5033278;28;20045;-56
2021/12/03 02:35:09;;;;;;;10.77;6.55;;;;;;;0.90;100.00;101034.84;5034150;28;20499;-58
2021/12/03 02:37:35;;;;;;;12.65;6.40;;;;;;;0.91;100.00;101034.91;5033979;28;20025;-56
2021/12/03 02:40:02;;;;;;;11.65;6.50;;;;;;;1.02;100.00;101042.06;5034894;28;20051;-58
2021/12/03 02:42:28;;;;;;;9.25;6.63;;;;;;;1.11;100.00;101042.38;5033986;28;20048;-56
2021/12/03 02:44:53;;;;;;;8.63;6.25;;;;;;;1.18;100.00;101034.91;5023006;28;20430;-56
2021/12/03 02:47:19;;;;;;;11.48;7.38;;;;;;;1.29;100.00;101037.81;5014445;28;20033;-55
2021/12/03 02:49:44;;;;;;;9.35;5.68;;;;;;;1.30;100.00;101029.28;5014646;28;20465;-54
2021/12/03 02:52:10;;;;;;;16.10;7.53;;;;;;;1.33;100.00;101029.38;5027733;28;20473;-57
2021/12/03 02:54:36;;;;;;;15.27;7.82;;;;;;;1.32;100.00;101027.63;5014504;28;20037;-56
2021/12/03 02:57:03;;;;;;;12.98;6.18;;;;;;;1.35;100.00;101025.16;5014506;28;20033;-55
2021/12/03 02:59:32;;;;;;;12.65;6.95;;;;;;;1.42;100.00;101025.41;5028088;28;20519;-57
2021/12/03 03:01:59;;;;;;;10.43;6.30;;;;;;;1.48;100.00;101018.66;5026024;28;20029;-54
2021/12/03 03:04:24;;;;;;;9.57;6.88;;;;;;;1.52;100.00;101026.53;5033795;28;20032;-54
2021/12/03 03:06:50;;;;;;;12.43;6.70;;;;;;;1.56;100.00;101027.50;5024430;28;20026;-55
2021/12/03 03:09:15;;;;;;;12.18;5.88;;;;;;;1.55;100.00;101026.66;5014098;28;20083;-54
2021/12/03 03:11:41;;;;;;;13.07;6.78;;;;;;;1.57;100.00;101017.25;5023137;28;20026;-54
2021/12/03 03:14:06;;;;;;;23.67;8.30;;;;;;;1.64;100.00;101029.50;5033935;28;20208;-56
2021/12/03 03:16:33;;;;;;;18.77;8.10;;;;;;;1.74;100.00;101028.97;5014341;28;20038;-57
2021/12/03 03:18:58;;;;;;;13.15;7.22;;;;;;;1.80;100.00;101021.41;5025723;28;20032;-57
2021/12/03 03:21:24;;;;;;;14.77;8.48;;;;;;;1.82;100.00;101024.91;5033129;28;20025;-57
2021/12/03 03:23:50;;;;;;;13.55;8.20;;;;;;;1.91;100.00;101023.44;5024280;28;20033;-56
2021/12/03 03:26:15;;;;;;;22.33;9.30;;;;;;;1.95;100.00;101028.69;5029171;28;20029;-57
2021/12/03 03:28:43;;;;;;;17.88;9.40;;;;;;;1.97;100.00;101027.06;5027352;28;20029;-56
2021/12/03 03:31:09;;;;;;;15.85;8.10;;;;;;;1.98;100.00;101009.88;5026575;28;20021;-57
2021/12/03 03:33:35;;;;;;;18.23;8.30;;;;;;;2.00;100.00;101015.94;5014694;28;20046;-57
2021/12/03 03:36:00;;;;;;;12.65;7.45;;;;;;;2.01;100.00;101022.84;5024820;28;20044;-58
2021/12/03 03:38:26;;;;;;;14.35;7.18;;;;;;;2.03;100.00;101016.06;5037215;28;20022;-59
2021/12/03 03:40:52;;;;;;;13.27;7.57;;;;;;;2.02;100.00;101011.72;5037516;28;20051;-59
2021/12/03 03:43:18;;;;;;;10.20;6.40;;;;;;;2.03;100.00;101005.75;5037516;28;20022;-59
2021/12/03 03:45:45;;;;;;;15.52;7.65;;;;;;;2.03;100.00;101003.19;5031029;28;20053;-58
2021/12/03 03:48:10;;;;;;;15.90;7.20;;;;;;;2.01;100.00;101002.25;5017803;28;20095;-58
2021/12/03 03:50:36;;;;;;;24.58;7.85;;;;;;;2.02;100.00;101014.31;5036420;28;20531;-56
2021/12/03 03:53:03;;;;;;;15.98;7.63;;;;;;;2.06;100.00;101011.00;5026382;28;20083;-57
2021/12/03 03:55:30;;;;;;;12.88;7.60;;;;;;;2.03;100.00;101004.03;5034478;28;20013;-57
2021/12/03 03:57:58;;;;;;;19.25;8.45;;;;;;;2.04;100.00;100997.16;5028364;28;20026;-58
2021/12/03 04:00:36;;;;;;;21.27;8.98;;;;;;;2.03;100.00;101001.44;5031221;28;20121;-54
2021/12/03 04:03:02;;;;;;;21.17;9.15;;;;;;;2.00;100.00;100985.03;5026900;28;20041;-57
2021/12/03 04:05:28;;;;;;;26.13;9.65;;;;;;;1.98;100.00;100986.69;5031145;28;20030;-57
2021/12/03 04:07:53;;;;;;;33.40;11.10;;;;;;;2.00;100.00;100985.91;5017524;28;20053;-57
2021/12/03 04:10:20;;;;;;;32.70;12.50;;;;;;;1.95;100.00;100991.78;5030799;28;20092;-57
2021/12/03 04:12:46;;;;;;;30.17;12.32;;;;;;;1.99;100.00;100983.31;5028399;28;20054;-56
2021/12/03 04:15:12;;;;;;;28.67;12.63;;;;;;;2.00;100.00;100985.03;5028062;28;20025;-57
2021/12/03 04:17:38;;;;;;;34.38;13.07;;;;;;;1.97;100.00;100979.78;5029378;28;20060;-56
2021/12/03 04:20:06;;;;;;;28.73;12.13;;;;;;;1.95;100.00;100968.59;5027837;28;20045;-57
2021/12/03 04:22:32;;;;;;;34.28;12.57;;;;;;;1.95;100.00;100976.31;5030815;28;20026;-56
2021/12/03 04:24:58;;;;;;;31.70;12.90;;;;;;;1.95;100.00;100984.03;5017123;28;20412;-55
2021/12/03 04:27:24;;;;;;;34.08;13.40;;;;;;;1.96;100.00;100972.88;5026575;28;20028;-56
2021/12/03 04:29:49;;;;;;;28.10;13.02;;;;;;;1.95;100.00;100976.31;5034754;28;20371;-57
2021/12/03 04:32:15;;;;;;;32.28;13.07;;;;;;;1.95;100.00;100976.31;5024953;28;20041;-57
2021/12/03 04:34:41;;;;;;;34.95;15.60;;;;;;;1.94;100.00;100979.72;5022978;28;20683;-57
2021/12/03 04:37:07;;;;;;;38.78;16.98;;;;;;;1.89;100.00;100977.88;5022626;28;20053;-55
2021/12/03 04:39:32;;;;;;;40.35;16.08;;;;;;;1.92;100.00;100981.34;5036762;28;20120;-58
2021/12/03 04:41:58;;;;;;;38.22;15.57;;;;;;;1.91;100.00;100979.63;5032713;28;20018;-57
2021/12/03 04:44:23;;;;;;;37.45;14.27;;;;;;;1.91;100.00;100987.38;5026527;28;20029;-57
2021/12/03 04:46:48;;;;;;;28.05;14.23;;;;;;;1.85;100.00;100981.19;5034349;28;20599;-56
2021/12/03 04:49:14;;;;;;;37.05;14.43;;;;;;;1.93;100.00;100998.56;5023627;28;20045;-57
2021/12/03 04:51:39;;;;;;;34.33;12.77;;;;;;;1.88;100.00;100976.13;5036492;28;20412;-56
2021/12/03 04:54:05;;;;;;;31.25;12.35;;;;;;;1.96;100.00;100975.47;5036213;28;20041;-56
2021/12/03 04:56:30;;;;;;;26.30;10.98;;;;;;;1.93;100.00;100957.34;5025109;28;20061;-58
2021/12/03 04:58:55;;;;;;;24.40;10.00;;;;;;;2.01;100.00;100976.47;5018540;28;20381;-57
2021/12/03 05:01:21;;;;;;;24.45;9.23;;;;;;;2.00;100.00;100974.72;5025970;28;20108;-57
2021/12/03 05:03:46;;;;;;;13.68;7.57;;;;;;;2.01;100.00;100971.31;5035888;28;20048;-57
2021/12/03 05:06:16;;;;;;;21.42;8.85;;;;;;;2.01;100.00;100955.84;5028769;28;20029;-57
2021/12/03 05:08:42;;;;;;;15.52;7.70;;;;;;;1.95;100.00;100961.69;5033697;28;20426;-57
2021/12/03 05:11:07;;;;;;;11.73;6.70;;;;;;;2.03;100.00;100969.66;5030211;28;20057;-56
2021/12/03 05:13:35;;;;;;;26.73;7.35;;;;;;;2.04;100.00;100973.97;5016345;28;20112;-57
2021/12/03 05:16:02;;;;;;;24.23;6.47;;;;;;;2.04;100.00;100963.66;5016096;28;20063;-56
2021/12/03 05:18:29;;;;;;;10.52;5.30;;;;;;;2.07;100.00;100971.50;5031167;28;20028;-55
2021/12/03 05:20:59;;;;;;;13.55;5.53;;;;;;;2.08;100.00;100962.91;5033253;28;20025;-57
2021/12/03 05:23:25;;;;;;;11.93;5.75;;;;;;;2.09;100.00;100959.53;5024974;28;20032;-56
2021/12/03 05:25:53;;;;;;;16.48;5.70;;;;;;;2.09;100.00;100962.09;5035675;28;20026;-57
2021/12/03 05:28:19;;;;;;;14.63;5.95;;;;;;;2.07;100.00;100956.03;5031801;28;20045;-56
2021/12/03 05:30:45;;;;;;;12.55;5.22;;;;;;;2.07;100.00;100961.19;5016000;28;20037;-56
2021/12/03 05:33:11;;;;;;;17.80;5.95;;;;;;;2.10;100.00;100958.69;5029437;28;20045;-56
2021/12/03 05:35:37;;;;;;;14.90;5.60;;;;;;;2.08;100.00;100966.38;5015933;28;20034;-57
2021/12/03 05:38:03;;;;;;;5.85;4.38;;;;;;;2.09;100.00;100967.25;5029178;28;20060;-57
2021/12/03 05:40:29;;;;;;;11.35;4.90;;;;;;;2.06;100.00;100959.44;5035190;28;20025;-57
2021/12/03 05:42:55;;;;;;;14.57;4.65;;;;;;;2.04;100.00;100958.50;5035408;28;20079;-57
2021/12/03 05:45:24;;;;;;;22.20;4.82;;;;;;;2.05;100.00;100962.84;5021269;28;20014;-57
2021/12/03 05:47:50;;;;;;;10.18;4.50;;;;;;;2.01;100.00;100955.84;5034422;28;20025;-57
2021/12/03 05:50:16;;;;;;;7.88;4.10;;;;;;;1.99;100.00;100958.38;5033091;28;20468;-57
2021/12/03 05:52:43;;;;;;;9.70;4.80;;;;;;;1.95;100.00;100950.53;5023834;28;20025;-54
2021/12/03 05:55:11;;;;;;;12.93;3.70;;;;;;;1.94;100.00;100954.81;5022196;28;20096;-54
2021/12/03 05:57:36;;;;;;;12.48;5.68;;;;;;;1.92;100.00;100940.13;5015798;28;20021;-54
2021/12/03 06:00:05;;;;;;;19.52;8.00;;;;;;;1.91;100.00;100943.56;5015700;28;20076;-54
2021/12/03 06:02:31;;;;;;;18.27;9.15;;;;;;;1.91;100.00;100940.97;5020326;28;20017;-54
2021/12/03 06:04:56;;;;;;;23.88;11.77;;;;;;;1.90;100.00;100942.69;5035080;28;20032;-54
2021/12/03 06:07:22;;;;;;;44.10;13.23;;;;;;;1.88;100.00;100934.91;5034630;28;20488;-55
2021/12/03 06:09:47;;;;;;;29.73;12.35;;;;;;;1.86;100.00;100941.72;5026050;28;20064;-57
2021/12/03 06:12:13;;;;;;;36.53;12.45;;;;;;;1.87;100.00;100943.44;5015091;28;20030;-56
2021/12/03 06:14:38;;;;;;;33.78;11.45;;;;;;;1.82;100.00;100941.59;5021905;28;20064;-56
2021/12/03 06:17:04;;;;;;;21.00;10.52;;;;;;;1.80;100.00;100930.34;5034567;28;20049;-58
2021/12/03 06:19:29;;;;;;;19.90;9.95;;;;;;;1.77;100.00;100941.47;5029915;28;20416;-57
2021/12/03 06:21:54;;;;;;;17.67;9.00;;;;;;;1.80;100.00;100951.84;5015187;28;20021;-55
2021/12/03 06:24:20;;;;;;;15.88;8.82;;;;;;;1.78;100.00;100955.22;5028588;28;20029;-55
2021/12/03 06:26:45;;;;;;;28.63;9.68;;;;;;;1.77;100.00;100951.75;5014871;28;20029;-60
2021/12/03 06:29:11;;;;;;;18.83;7.40;;;;;;;1.77;100.00;100956.91;5033466;28;20033;-59
2021/12/03 06:31:36;;;;;;;18.67;7.28;;;;;;;1.73;100.00;100959.34;5029475;28;20018;-59
2021/12/03 06:34:02;;;;;;;22.58;8.50;;;;;;;1.74;100.00;100956.84;5032728;28;20057;-59
2021/12/03 06:36:28;;;;;;;28.05;9.60;;;;;;;1.75;100.00;100952.56;5019442;28;20075;-60
2021/12/03 06:38:53;;;;;;;14.98;7.07;;;;;;;1.79;100.00;100970.69;5030482;28;20468;-60
2021/12/03 06:41:19;;;;;;;23.23;7.53;;;;;;;1.77;100.00;100962.06;5027601;28;20379;-60
2021/12/03 06:43:44;;;;;;;20.90;8.20;;;;;;;1.79;100.00;100951.81;5027981;28;20116;-60
2021/12/03 06:46:09;;;;;;;30.52;10.20;;;;;;;1.82;100.00;100955.34;5023066;28;20139;-59
2021/12/03 06:48:35;;;;;;;23.50;9.13;;;;;;;1.76;100.00;100934.56;5028255;28;20119;-59
2021/12/03 06:51:01;;;;;;;23.05;9.57;;;;;;;1.85;100.00;100939.97;5024572;28;20034;-59
2021/12/03 06:53:37;;;;;;;32.80;11.75;;;;;;;1.86;100.00;100926.28;5022039;28;20037;-58
2021/12/03 06:56:08;;;;;;;28.05;11.20;;;;;;;1.88;100.00;100929.75;5022813;28;20118;-58
2021/12/03 06:58:34;;;;;;;25.88;10.38;;;;;;;1.92;100.00;100937.56;5024776;28;20033;-55
2021/12/03 07:01:00;;;;;;;39.92;11.10;;;;;;;1.89;100.00;100922.91;5010986;28;20075;-58
2021/12/03 07:03:26;;;;;;;15.38;8.10;;;;;;;1.94;100.00;100916.19;5000328;28;20574;-57
2021/12/03 07:05:51;;;;;;;31.63;8.20;;;;;;;1.99;100.00;100913.72;4995554;28;20037;-58
2021/12/03 07:08:17;;;;;;;14.38;6.88;;;;;;;2.01;100.00;100906.91;4995732;28;20021;-58
2021/12/03 07:10:43;;;;;;;15.48;7.18;;;;;;;2.05;100.00;100906.16;4996694;28;20476;-59
2021/12/03 07:13:08;;;;;;;15.20;5.95;;;;;;;2.10;100.00;100899.41;4967354;28;20025;-58
2021/12/03 07:15:34;;;;;;;16.25;5.35;;;;;;;2.06;100.00;100913.06;4929763;28;20029;-58
2021/12/03 07:18:00;;;;;;;10.38;5.65;;;;;;;2.12;100.00;100933.81;4899357;28;20025;-58
2021/12/03 07:20:27;;;;;;;16.60;5.03;;;;;;;2.13;100.00;100917.53;4853014;28;20476;-58
2021/12/03 07:22:54;;;;;;;14.82;6.28;;;;;;;2.18;100.00;100913.38;4779623;28;20685;-60
2021/12/03 07:25:20;;;;;;;18.60;7.20;;;;;;;2.23;100.00;100906.66;4729203;28;20799;-60
2021/12/03 07:27:45;;;;;;;19.73;6.10;;;;;;;2.18;100.00;100903.06;4678682;28;21309;-58
2021/12/03 07:30:13;;;;;;;17.33;7.03;;;;;;;2.29;100.00;100912.81;4655478;28;20087;-59
2021/12/03 07:32:39;;;;;;;12.63;5.93;;;;;;;2.32;100.00;100918.06;4653318;28;23174;-58
2021/12/03 07:35:06;;;;;;;15.57;5.43;;;;;;;2.32;100.00;100922.34;4651258;28;20037;-59
2021/12/03 07:37:32;;;;;;;18.73;6.32;;;;;;;2.33;100.00;100903.47;4761030;28;20140;-57
2021/12/03 07:40:06;;;;;;;20.23;6.63;;;;;;;2.37;100.00;100910.44;4763994;28;20777;-58
2021/12/03 07:42:33;;;;;;;18.77;5.65;;;;;;;2.38;100.00;100917.34;4788286;28;20031;-59
2021/12/03 07:44:59;;;;;;;18.77;6.13;;;;;;;2.36;100.00;100898.38;4781125;28;20135;-60
2021/12/03 07:47:25;;;;;;;17.58;5.68;;;;;;;2.34;100.00;100889.75;4806018;28;20053;-55
2021/12/03 07:49:51;;;;;;;15.43;4.43;;;;;;;2.34;100.00;100900.06;4799942;28;20662;-58
2021/12/03 07:52:20;;;;;;;13.23;5.53;;;;;;;2.36;100.00;100900.97;4791338;28;20060;-60
2021/12/03 07:54:45;;;;;;;11.23;5.38;;;;;;;2.34;100.00;100900.06;4803609;28;21447;-59
2021/12/03 07:57:11;;;;;;;9.60;3.65;;;;;;;2.32;100.00;100896.56;4789884;28;20040;-58
2021/12/03 07:59:37;;;;;;;8.48;3.80;;;;;;;2.31;100.00;100869.03;4764449;28;20026;-59
2021/12/03 08:02:02;;;;;;;17.77;5.57;;;;;;;2.40;100.00;100889.88;4788811;28;20080;-60
2021/12/03 08:04:28;;;;;;;11.30;4.00;;;;;;;2.44;100.00;100886.56;4751194;28;20618;-57
2021/12/03 08:06:54;;;;;;;10.15;4.63;;;;;;;2.39;100.00;100846.88;4754847;28;20092;-59
2021/12/03 08:09:22;;;;;;;11.95;4.22;;;;;;;2.35;100.00;100850.22;4730138;28;21109;-59
2021/12/03 08:11:47;;;;;;;8.48;4.90;;;;;;;2.45;100.00;100864.22;4757835;28;20030;-58
2021/12/03 08:14:13;;;;;;;10.40;5.47;;;;;;;2.49;100.00;100874.66;4627431;28;22341;-61
2021/12/03 08:16:39;;;;;;;18.45;5.75;;;;;;;2.52;100.00;100860.94;4656911;28;20202;-60
2021/12/03 08:19:05;;;;;;;8.38;3.83;;;;;;;2.56;100.00;100850.75;4687997;28;20037;-60
2021/12/03 08:21:30;;;;;;;9.70;5.20;;;;;;;2.67;100.00;100864.75;4664261;28;20049;-58
2021/12/03 08:23:56;;;;;;;6.20;4.32;;;;;;;2.71;100.00;100861.41;4636165;28;20250;-60
2021/12/03 08:26:21;;;;;;;10.98;4.13;;;;;;;2.75;100.00;100855.50;4722054;28;20048;-56
2021/12/03 08:28:47;;;;;;;6.65;3.53;;;;;;;2.78;100.00;100863.34;4717123;28;20140;-57
2021/12/03 08:31:14;;;;;;;12.07;4.90;;;;;;;2.77;100.00;100871.91;4793171;28;20051;-58
2021/12/03 08:33:43;;;;;;;5.82;3.80;;;;;;;2.74;100.00;100865.81;4787874;28;20053;-60
2021/12/03 08:36:09;;;;;;;14.45;5.43;;;;;;;2.73;100.00;100852.03;4829849;28;20407;-56
2021/12/03 08:38:34;;;;;;;9.98;3.83;;;;;;;2.60;100.00;100820.75;4720214;28;22088;-59
2021/12/03 08:41:02;;;;;;;5.80;3.17;;;;;;;2.81;100.00;100847.91;4791710;28;20466;-60
2021/12/03 08:43:27;;;;;;;11.75;3.80;;;;;;;2.84;100.00;100853.13;4824245;28;21169;-57
2021/12/03 08:45:55;;;;;;;12.63;3.88;;;;;;;2.87;100.00;100841.16;4807348;28;22586;-57
2021/12/03 08:48:22;;;;;;;8.43;4.05;;;;;;;2.97;100.00;100837.94;4775300;28;20029;-57
2021/12/03 08:50:52;;;;;;;7.45;3.28;;;;;;;2.90;100.00;100830.91;4751360;28;20033;-56
2021/12/03 08:54:48;;;;;;;7.32;3.13;;;;;;;2.86;100.00;100847.16;4774156;28;21303;-57
2021/12/03 08:56:05;;;;;;;5.85;3.20;;;;;;;2.79;100.00;100839.25;4776145;28;20053;-59
2021/12/03 08:58:30;;;;;;;11.27;3.58;;;;;;;2.91;100.00;100848.13;4735015;28;20664;-59
2021/12/03 09:00:55;;;;;;;8.93;3.35;;;;;;;2.94;100.00;100848.19;4682001;28;20800;-58
2021/12/03 09:03:22;;;;;;;9.93;4.13;;;;;;;2.88;100.00;100848.03;4723633;28;20033;-55
2021/12/03 09:05:48;;;;;;;11.38;4.32;;;;;;;2.82;100.00;100844.50;4681193;28;21753;-61
2021/12/03 09:08:13;;;;;;;8.95;3.35;;;;;;;2.76;100.00;100839.19;4632651;28;20034;-57
2021/12/03 09:10:40;;;;;;;20.27;5.15;;;;;;;2.59;100.00;100814.69;4535894;28;24618;-61
2021/12/03 09:13:06;;;;;;;8.68;3.80;;;;;;;2.68;100.00;100829.53;4579641;28;20033;-59
2021/12/03 09:15:41;;;;;;;9.73;3.60;;;;;;;2.68;100.00;100835.56;4614023;28;20026;-60
2021/12/03 09:18:21;;;;;;;12.93;3.28;;;;;;;2.68;100.00;100835.56;4643923;28;20979;-60
2021/12/03 09:20:54;;;;;;;18.40;4.80;;;;;;;2.77;100.00;100840.94;4624007;28;21742;-58
2021/12/03 09:26:05;;;;;;;9.43;3.85;;;;;;;2.84;100.00;100832.50;4582351;28;20041;-60
2021/12/03 09:28:31;;;;;;;;;;;;;;;2.89;100.00;100819.69;4600012;28;20171;-57
2021/12/03 09:30:57;;;;;;;5.88;4.10;;;;;;;2.80;100.00;100801.44;4656531;28;20040;-61
2021/12/03 09:33:26;;;;;;;12.90;4.22;;;;;;;2.87;100.00;100813.63;4569648;22;20099;-59
2021/12/03 09:35:56;;;;;;;7.90;4.38;;;;;;;2.84;100.00;100806.69;4576436;28;20854;-60
2021/12/03 09:38:24;;;;;;;14.85;3.40;;;;;;;2.93;100.00;100812.91;4567126;28;20100;-60
2021/12/03 09:40:49;;;;;;;11.70;4.90;;;;;;;3.03;100.00;100807.06;4563244;28;21819;-59
2021/12/03 09:43:15;;;;;;;6.35;3.45;;;;;;;3.04;100.00;100811.41;4593825;28;23135;-59
2021/12/03 09:45:47;;;;;;;18.60;6.13;;;;;;;3.12;100.00;100802.13;4656494;28;20133;-59
2021/12/03 09:48:27;;;;;;;16.98;5.78;;;;;;;3.23;100.00;100790.28;4647211;28;20034;-59
2021/12/03 09:50:52;;;;;;;16.88;5.22;;;;;;;3.31;100.00;100770.66;4599817;28;21809;-61
2021/12/03 09:53:37;;;;;;;10.88;4.22;;;;;;;3.31;100.00;100793.91;4654702;28;20037;-59
2021/12/03 09:56:02;;;;;;;15.15;3.45;;;;;;;3.32;100.00;100785.31;4658946;28;20033;-60
2021/12/03 10:01:31;;;;;;;5.65;3.90;;;;;;;3.43;100.00;100776.06;4628696;28;20150;-57
2021/12/03 10:18:02;;;;;;;2.80;2.35;;;;;;;3.75;100.00;100740.50;4688499;28;20102;-59
2021/12/03 10:39:02;;;;;;;8.52;2.75;;;;;;;4.16;100.00;100707.56;4705071;28;20041;-59
2021/12/03 10:41:51;;;;;;;3.50;2.50;;;;;;;4.12;100.00;100706.66;4746685;28;20048;-62
2021/12/03 10:49:49;;;;;;;9.18;2.85;;;;;;;4.26;100.00;100688.75;4738613;28;20176;-63
2021/12/03 10:56:04;;;;;;;5.93;2.20;;;;;;;4.25;100.00;100693.09;4641064;29;20043;-59
2021/12/03 11:26:09;;;;;;;5.85;2.17;;;;;;;4.69;100.00;100600.53;4536021;28;20051;-61
2021/12/03 12:04:12;;;;;;;;;;;;;;;4.52;100.00;100532.19;4660258;28;20982;-61
2021/12/03 12:35:31;;;;;;;;;;;;;;;;;;;;;
2021/12/03 13:22:44;;;;;;;4.80;3.03;;;;;;;3.21;100.00;100448.63;4679026;28;20081;-58
2021/12/03 14:03:46;;;;;;;2.25;1.85;;;;;;;3.33;100.00;100384.25;4678184;28;22346;-59
2021/12/03 14:09:04;;;;;;;2.65;1.88;;;;;;;3.36;100.00;100373.09;4618252;28;20043;-62
2021/12/03 14:34:35;;;;;;;2.38;2.00;;;;;;;3.40;100.00;100422.22;4842634;28;20097;-60
2021/12/03 14:57:10;;;;;;;2.45;2.25;;;;;;;3.44;100.00;100367.19;4861180;28;20109;-61
2021/12/03 14:59:38;;;;;;;3.95;2.65;;;;;;;3.41;100.00;100367.16;4885083;28;20035;-60
2021/12/03 15:07:11;;;;;;;2.55;2.10;;;;;;;3.52;100.00;100368.16;4908374;28;20034;-61
2021/12/03 15:09:43;;;;;;;4.15;2.50;;;;;;;3.51;100.00;100363.81;4914366;28;20085;-60
2021/12/03 15:25:24;;;;;;;3.17;2.22;;;;;;;3.58;100.00;100357.88;4956429;28;20074;-61
2021/12/03 15:30:44;;;;;;;;;;;;;;;;;;;;;
2021/12/03 15:33:12;;;;;;;5.00;2.60;;;;;;;3.62;100.00;100366.56;4957583;28;20050;-61
2021/12/03 15:36:03;;;;;;;1.90;1.80;;;;;;;3.63;100.00;100353.63;4958660;28;20412;-61
2021/12/03 15:38:46;;;;;;;3.28;2.97;;;;;;;3.60;100.00;100343.28;4952103;28;20045;-62
2021/12/03 16:04:54;;;;;;;2.53;2.33;;;;;;;3.54;100.00;100322.56;4961493;28;20537;-62
2021/12/03 16:10:12;;;;;;;;;;;;;;;;;;;;;
2021/12/03 16:12:53;;;;;;;;;;;;;;;;;;;;;
2021/12/03 16:20:25;;;;;;;4.30;3.90;;;;;;;3.53;100.00;100331.16;4970112;28;20030;-59
2021/12/03 16:25:57;;;;;;;;;;;;;;;;;;;;;
2021/12/03 16:52:58;;;;;;;3.03;2.75;;;;;;;3.62;100.00;100289.88;4957796;28;20094;-60
2021/12/03 16:55:24;;;;;;;4.55;3.60;;;;;;;3.62;100.00;100284.72;4955803;28;20035;-60
2021/12/03 16:57:52;;;;;;;3.67;3.30;;;;;;;3.65;100.00;100265.84;4956404;28;20031;-60
2021/12/03 17:00:35;;;;;;;5.60;3.50;;;;;;;3.63;100.00;100245.13;4961909;28;20466;-60
2021/12/03 17:11:15;;;;;;;3.15;2.78;;;;;;;3.69;100.00;100229.72;4963418;28;20109;-59
2021/12/03 17:22:09;;;;;;;2.72;2.53;;;;;;;3.71;100.00;100228.00;4972099;28;20045;-57
2021/12/03 17:24:46;;;;;;;4.03;2.83;;;;;;;3.72;100.00;100218.53;4976127;28;20418;-58
2021/12/03 17:58:30;;;;;;;3.70;3.05;;;;;;;3.66;100.00;100203.81;4976528;28;20096;-58
2021/12/03 18:01:03;;;;;;;;;;;;;;;;;;;;;
2021/12/03 18:08:47;;;;;;;;;;;;;;;;;;;;;
2021/12/03 18:16:33;;;;;;;;;;;;;;;;;;;;;